Leona Valley, California
Current Conditions -  °F | °C
As of 11:48 AM on Wednesday 26 Nov 2014 (Local Time) from KSDB Reporting Station
Clear Clear  
Wind Chill: 71°   Ceiling: Unl
Heat Index: 71°   Visibility: 10mi
Dew Point:   Wind: 13mph
Humidity: 8%   Direction: 60°ENE
Pressure: 30.41"   Gusts: 18mph
Location:  34.6849°N, 118.558°W
Report Text: KSDB 261948Z AUTO 06011G16KT 10SM CLR 22/M14 A3041 RMK AO2 SLP255 T02171139
Loading
Personal Weather Stations






























Interactive Weather Map New forecast layout! Learn more

10-Day Weather Forecast

Advertisements
Track Severe Weather on mobile